Time;durP1;ratioP1;P1;durP2;ratioP2;P2;SDS_P1;SDS_P2;PMS_P1;PMS_P2;Temp;Humidity;BMP_temperature;BMP_pressure;BME280_temperature;BME280_humidity;BME280_pressure;Samples;Min_cycle;Max_cycle;Signal;HPM_P1;HPM_P2
2022/01/29 00:01:44;;;;;;;12.87;9.53;;;;;;;2.08;100.00;151901.41;5104604;28;20464;-76
2022/01/29 00:04:20;;;;;;;11.77;7.70;;;;;;;2.08;100.00;151901.41;5070352;28;20787;-76
2022/01/29 00:06:55;;;;;;;9.50;8.23;;;;;;;2.08;100.00;151900.13;5055934;28;20443;-76
2022/01/29 00:09:31;;;;;;;9.77;8.60;;;;;;;2.04;100.00;151891.09;5070128;28;20447;-76
2022/01/29 00:12:07;;;;;;;11.50;9.13;;;;;;;2.05;100.00;151893.69;5068898;28;20823;-76
2022/01/29 00:14:45;;;;;;;11.80;7.87;;;;;;;2.03;100.00;151888.56;5055542;28;20478;-76
2022/01/29 00:17:20;;;;;;;12.20;8.37;;;;;;;2.04;100.00;151891.09;5050591;28;20914;-76
2022/01/29 00:19:56;;;;;;;14.00;8.17;;;;;;;2.08;100.00;151901.41;5080884;28;20567;-75
2022/01/29 00:22:31;;;;;;;11.80;8.57;;;;;;;2.08;100.00;151901.41;5087156;28;20454;-76
2022/01/29 00:25:08;;;;;;;10.63;8.73;;;;;;;2.05;100.00;151893.69;5071187;28;20478;-76
2022/01/29 00:27:43;;;;;;;15.43;9.50;;;;;;;2.09;100.00;151902.72;5072208;28;20440;-76
2022/01/29 00:30:25;;;;;;;10.50;8.00;;;;;;;2.10;100.00;151905.25;5053909;28;20446;-76
2022/01/29 00:33:01;;;;;;;9.73;8.10;;;;;;;2.08;100.00;151901.41;5102318;28;20448;-76
2022/01/29 00:35:37;;;;;;;10.93;8.70;;;;;;;2.07;100.00;151898.81;5104059;28;20450;-75
2022/01/29 00:38:12;;;;;;;14.30;8.27;;;;;;;2.11;100.00;151907.84;5054347;28;20436;-75
2022/01/29 00:40:48;;;;;;;15.03;9.60;;;;;;;2.07;100.00;151898.81;5085796;28;20815;-76
2022/01/29 00:43:24;;;;;;;12.93;8.90;;;;;;;2.09;100.00;151902.72;5070709;28;20446;-76
2022/01/29 00:46:01;;;;;;;11.10;8.37;;;;;;;2.06;100.00;151896.28;5104523;28;20536;-76
2022/01/29 00:48:36;;;;;;;10.37;8.23;;;;;;;2.06;100.00;151896.28;5103286;28;20431;-76
2022/01/29 00:51:12;;;;;;;11.07;7.23;;;;;;;2.09;100.00;151902.72;5101234;28;20490;-76
2022/01/29 00:53:47;;;;;;;8.80;7.50;;;;;;;2.06;100.00;151896.28;5053902;28;20451;-75
2022/01/29 00:56:23;;;;;;;11.20;7.60;;;;;;;2.05;100.00;151893.69;5087671;28;20825;-76
2022/01/29 00:58:59;;;;;;;10.77;6.80;;;;;;;2.06;100.00;151895.00;5098485;28;20443;-76
2022/01/29 01:01:36;;;;;;;9.77;7.40;;;;;;;2.04;100.00;151891.09;5088998;28;20852;-76
2022/01/29 01:04:11;;;;;;;9.80;7.37;;;;;;;2.00;100.00;151879.56;5072266;28;20434;-76
2022/01/29 01:06:47;;;;;;;9.70;6.73;;;;;;;1.99;100.00;151878.25;5102148;28;20852;-76
2022/01/29 01:09:23;;;;;;;14.80;8.00;;;;;;;1.97;100.00;151873.13;5105051;28;20941;-76
2022/01/29 01:11:58;;;;;;;9.47;7.17;;;;;;;2.00;100.00;151880.84;5073350;28;20435;-76
2022/01/29 01:14:35;;;;;;;8.40;6.83;;;;;;;2.00;100.00;151880.84;5058060;28;20836;-76
2022/01/29 01:17:12;;;;;;;8.77;6.90;;;;;;;1.98;100.00;151875.72;5106065;28;20457;-76
2022/01/29 01:19:47;;;;;;;11.00;7.03;;;;;;;2.01;100.00;151882.13;5108273;28;20438;-76
2022/01/29 01:22:23;;;;;;;11.40;7.03;;;;;;;2.00;100.00;151880.84;5075442;28;20442;-76
2022/01/29 01:24:59;;;;;;;8.47;6.50;;;;;;;1.99;100.00;151878.25;5067792;28;20453;-76
2022/01/29 01:27:35;;;;;;;10.30;6.80;;;;;;;2.03;100.00;151888.56;5101326;28;20819;-76
2022/01/29 01:30:12;;;;;;;10.83;7.00;;;;;;;2.05;100.00;151893.69;5107445;28;20534;-76
2022/01/29 01:32:48;;;;;;;9.40;7.37;;;;;;;2.03;100.00;151887.25;5107204;28;20899;-76
2022/01/29 01:35:29;;;;;;;9.17;6.80;;;;;;;1.99;100.00;151878.25;5106827;28;20450;-76
2022/01/29 01:38:11;;;;;;;7.10;5.93;;;;;;;2.00;100.00;151880.84;5105693;28;20475;-76
2022/01/29 01:40:49;;;;;;;10.20;6.63;;;;;;;2.00;100.00;151879.56;5087700;28;20476;-76
2022/01/29 01:43:24;;;;;;;8.33;6.30;;;;;;;2.03;100.00;151887.25;5093375;28;20811;-76
2022/01/29 01:46:00;;;;;;;9.10;6.57;;;;;;;1.99;100.00;151878.25;5102341;28;20773;-76
2022/01/29 01:48:37;;;;;;;13.80;7.43;;;;;;;1.99;100.00;151878.25;5057662;28;20432;-77
2022/01/29 01:51:13;;;;;;;7.87;6.20;;;;;;;2.01;100.00;151882.13;5107289;28;20487;-76
2022/01/29 01:53:49;;;;;;;8.83;7.10;;;;;;;2.02;100.00;151885.97;5073847;28;20443;-76
2022/01/29 01:56:24;;;;;;;7.40;6.07;;;;;;;2.03;100.00;151888.56;5107319;28;20443;-76
2022/01/29 01:59:00;;;;;;;7.57;6.13;;;;;;;2.03;100.00;151888.56;5107630;28;20436;-75
2022/01/29 02:01:36;;;;;;;6.93;5.33;;;;;;;2.05;99.46;151893.69;5070259;28;20505;-76
2022/01/29 02:04:13;;;;;;;7.03;5.97;;;;;;;2.08;100.00;151901.41;5101726;28;20447;-76
2022/01/29 02:06:51;;;;;;;9.73;6.57;;;;;;;2.07;99.38;151898.81;5072736;28;20434;-76
2022/01/29 02:09:27;;;;;;;10.97;6.40;;;;;;;2.07;99.44;151898.81;5072336;28;20439;-75
2022/01/29 02:12:03;;;;;;;8.47;6.10;;;;;;;2.09;100.00;151903.94;5074691;28;20796;-76
2022/01/29 02:14:40;;;;;;;7.93;6.13;;;;;;;2.07;99.71;151898.81;5072137;28;20475;-76
2022/01/29 02:17:16;;;;;;;6.37;5.40;;;;;;;2.07;100.00;151898.81;5107235;28;20884;-76
2022/01/29 02:19:53;;;;;;;7.80;5.83;;;;;;;2.07;100.00;151898.81;5106632;28;20447;-76
2022/01/29 02:22:30;;;;;;;8.50;5.80;;;;;;;2.03;100.00;151887.25;5086038;28;20499;-76
2022/01/29 02:25:05;;;;;;;7.20;5.93;;;;;;;2.07;100.00;151897.53;5090463;28;20542;-76
2022/01/29 02:27:41;;;;;;;6.80;5.57;;;;;;;2.05;99.63;151893.69;5068973;28;20428;-76
2022/01/29 02:30:17;;;;;;;6.90;5.90;;;;;;;2.03;100.00;151888.56;5071927;28;20450;-76
2022/01/29 02:32:52;;;;;;;7.60;6.17;;;;;;;2.03;98.89;151887.25;5105324;28;20447;-76
2022/01/29 02:35:28;;;;;;;8.33;5.90;;;;;;;2.04;100.00;151891.09;5057833;28;20447;-76
2022/01/29 02:38:04;;;;;;;9.00;6.07;;;;;;;2.04;100.00;151891.09;5106031;28;20440;-76
2022/01/29 02:40:46;;;;;;;6.00;5.20;;;;;;;2.05;99.99;151892.41;5101217;28;20470;-75
2022/01/29 02:43:25;;;;;;;7.07;5.50;;;;;;;2.03;99.85;151888.56;5097728;28;20804;-76
2022/01/29 02:46:06;;;;;;;6.60;5.10;;;;;;;2.02;99.04;151885.97;5090032;28;20471;-76
2022/01/29 02:48:41;;;;;;;6.20;5.07;;;;;;;2.01;100.00;151882.13;5104750;28;20439;-75
2022/01/29 02:51:18;;;;;;;6.93;5.27;;;;;;;1.98;100.00;151874.41;5090118;28;20824;-76
2022/01/29 02:53:55;;;;;;;6.40;5.47;;;;;;;1.95;99.20;151868.00;5106351;28;20448;-76
2022/01/29 02:56:30;;;;;;;8.17;5.50;;;;;;;1.94;99.52;151865.41;5074077;28;20448;-76
2022/01/29 02:59:06;;;;;;;5.80;5.20;;;;;;;1.94;100.00;151865.41;5084756;28;20946;-76
2022/01/29 03:01:41;;;;;;;7.00;5.20;;;;;;;1.94;99.64;151865.41;5071362;28;20491;-76
2022/01/29 03:04:17;;;;;;;6.50;5.70;;;;;;;1.93;99.20;151861.56;5072452;28;20798;-76
2022/01/29 03:06:52;;;;;;;7.00;4.70;;;;;;;1.90;99.07;151855.16;5104027;28;20455;-76
2022/01/29 03:09:30;;;;;;;5.73;4.83;;;;;;;1.89;100.00;151852.56;5071536;28;20537;-75
2022/01/29 03:12:06;;;;;;;9.43;5.83;;;;;;;1.89;100.00;151852.56;5105802;28;20463;-76
2022/01/29 03:14:41;;;;;;;6.90;5.60;;;;;;;1.88;100.00;151848.72;5106029;28;20565;-76
2022/01/29 03:17:17;;;;;;;6.60;5.00;;;;;;;1.86;100.00;151844.84;5091134;28;20538;-76
2022/01/29 03:19:53;;;;;;;5.63;5.00;;;;;;;1.92;100.00;151858.97;5089581;28;20443;-76
2022/01/29 03:22:30;;;;;;;6.67;5.80;;;;;;;1.88;99.81;151849.97;5073140;28;20526;-76
2022/01/29 03:25:08;;;;;;;6.20;5.60;;;;;;;1.83;98.90;151837.13;5104270;28;20449;-76
2022/01/29 03:27:44;;;;;;;7.30;5.53;;;;;;;1.83;100.00;151837.13;5053024;28;20472;-76
2022/01/29 03:30:19;;;;;;;6.63;5.53;;;;;;;1.85;100.00;151842.28;5036498;28;20454;-76
2022/01/29 03:32:55;;;;;;;5.43;4.90;;;;;;;1.85;99.93;151842.28;5068359;28;20424;-77
2022/01/29 03:35:31;;;;;;;7.13;5.40;;;;;;;1.82;99.39;151835.88;5086539;28;20478;-76
2022/01/29 03:38:06;;;;;;;6.27;5.03;;;;;;;1.85;100.00;151842.28;5071954;28;20530;-76
2022/01/29 03:40:45;;;;;;;6.53;4.90;;;;;;;1.84;100.00;151839.72;5104886;28;20431;-76
2022/01/29 03:43:28;;;;;;;6.37;5.53;;;;;;;1.87;100.00;151847.41;5094384;28;20431;-76
2022/01/29 03:46:03;;;;;;;6.57;5.30;;;;;;;1.89;100.00;151851.25;5070519;28;20440;-76
2022/01/29 03:48:39;;;;;;;9.93;5.53;;;;;;;1.89;99.15;151852.56;5104872;28;20437;-76
2022/01/29 03:51:14;;;;;;;7.07;5.17;;;;;;;1.87;98.49;151846.13;5072383;28;20471;-76
2022/01/29 03:53:49;;;;;;;9.53;4.77;;;;;;;1.89;98.98;151851.25;5069563;28;20450;-76
2022/01/29 03:56:26;;;;;;;9.27;5.50;;;;;;;1.89;98.68;151852.56;5070960;28;20451;-76
2022/01/29 03:59:02;;;;;;;8.47;5.80;;;;;;;1.87;100.00;151847.41;5104695;28;20420;-76
2022/01/29 04:01:37;;;;;;;6.70;4.43;;;;;;;1.88;100.00;151849.97;5095826;28;20468;-75
2022/01/29 04:04:13;;;;;;;6.87;4.40;;;;;;;1.85;100.00;151843.53;5051357;28;20441;-76
2022/01/29 04:06:50;;;;;;;6.90;5.20;;;;;;;1.85;100.00;151843.53;5088978;28;20460;-75
2022/01/29 04:09:27;;;;;;;6.30;4.80;;;;;;;1.88;100.00;151849.97;5054917;28;20516;-76
2022/01/29 04:12:05;;;;;;;5.87;5.10;;;;;;;1.89;99.09;151852.56;5069233;28;20788;-76
2022/01/29 04:14:41;;;;;;;6.60;4.97;;;;;;;1.89;99.38;151852.56;5072106;28;20471;-76
2022/01/29 04:17:16;;;;;;;6.07;4.67;;;;;;;1.90;100.00;151855.16;5071293;28;20428;-76
2022/01/29 04:19:52;;;;;;;5.87;4.50;;;;;;;1.89;100.00;151852.56;5042401;28;20441;-76
2022/01/29 04:22:27;;;;;;;4.83;4.40;;;;;;;1.90;98.71;151853.84;5101518;28;20866;-76
2022/01/29 04:25:03;;;;;;;6.70;4.07;;;;;;;1.91;100.00;151857.69;5054543;28;20578;-76
2022/01/29 04:27:43;;;;;;;5.20;4.17;;;;;;;1.92;99.25;151860.28;5104401;28;20442;-75
2022/01/29 04:30:27;;;;;;;4.53;3.50;;;;;;;1.95;98.77;151866.69;5086475;28;20451;-75
2022/01/29 04:33:14;;;;;;;5.37;4.23;;;;;;;1.94;98.16;151865.41;5104143;28;20433;-75
2022/01/29 04:35:53;;;;;;;4.53;3.60;;;;;;;1.95;98.82;151866.69;5070339;28;20492;-75
2022/01/29 04:38:30;;;;;;;5.47;4.37;;;;;;;1.98;98.67;151874.41;5056055;28;20869;-75
2022/01/29 04:41:06;;;;;;;6.90;3.57;;;;;;;1.98;97.92;151874.41;5058522;28;20481;-75
2022/01/29 04:43:43;;;;;;;4.70;3.80;;;;;;;1.98;98.38;151874.41;5089483;28;20428;-75
2022/01/29 04:46:19;;;;;;;4.53;3.70;;;;;;;1.98;99.94;151875.72;5108758;28;20453;-75
2022/01/29 04:48:54;;;;;;;5.83;3.90;;;;;;;1.96;97.97;151870.53;5107518;28;20454;-75
2022/01/29 04:51:30;;;;;;;5.47;4.17;;;;;;;1.97;98.47;151871.81;5108923;28;20873;-75
2022/01/29 04:54:06;;;;;;;4.27;3.83;;;;;;;1.99;98.70;151878.25;5058559;28;20502;-75
2022/01/29 04:56:41;;;;;;;4.60;3.63;;;;;;;1.99;98.92;151878.25;5107318;28;20463;-75
2022/01/29 04:59:18;;;;;;;4.93;4.20;;;;;;;1.97;99.02;151873.13;5058522;28;20479;-75
2022/01/29 05:01:54;;;;;;;5.50;4.10;;;;;;;1.97;98.87;151873.13;5075355;28;20464;-75
2022/01/29 05:04:38;;;;;;;4.87;3.80;;;;;;;1.98;98.58;151875.72;5073935;28;20452;-75
2022/01/29 05:07:14;;;;;;;5.80;4.10;;;;;;;1.99;99.25;151878.25;5076103;28;20541;-75
2022/01/29 05:09:50;;;;;;;5.07;3.83;;;;;;;1.97;98.08;151871.81;5107829;28;20457;-75
2022/01/29 05:12:30;;;;;;;5.07;4.23;;;;;;;1.98;98.33;151875.72;5058809;28;20778;-76
2022/01/29 05:15:14;;;;;;;4.40;3.37;;;;;;;1.99;98.54;151878.25;5072814;28;20534;-75
2022/01/29 05:29:22;;;;;;;6.70;3.93;;;;;;;1.96;97.96;151870.53;5107231;28;20423;-75
2022/01/29 05:31:59;;;;;;;4.10;3.40;;;;;;;1.97;98.67;151873.13;5107705;28;20911;-75
2022/01/29 05:34:35;;;;;;;4.77;3.70;;;;;;;1.98;99.96;151875.72;5058218;28;20443;-75
2022/01/29 05:37:19;;;;;;;4.67;3.93;;;;;;;1.98;99.11;151874.41;5090229;28;20446;-75
2022/01/29 05:40:07;;;;;;;4.27;3.87;;;;;;;2.00;100.00;151879.56;5071383;28;20455;-75
2022/01/29 05:42:43;;;;;;;3.70;3.13;;;;;;;2.00;99.87;151879.56;5056823;28;20467;-75
2022/01/29 05:45:18;;;;;;;7.50;4.33;;;;;;;1.99;100.00;151878.25;5073146;28;20474;-76
2022/01/29 05:47:55;;;;;;;10.00;4.50;;;;;;;1.97;99.93;151871.81;5106540;28;20445;-75
2022/01/29 05:50:30;;;;;;;6.67;5.40;;;;;;;1.95;99.48;151868.00;5106464;28;20518;-75
2022/01/29 05:53:06;;;;;;;6.67;5.83;;;;;;;1.95;100.00;151866.69;5095267;28;20830;-75
2022/01/29 05:55:42;;;;;;;7.30;5.70;;;;;;;1.97;100.00;151871.81;5074198;28;20967;-75
2022/01/29 05:58:17;;;;;;;7.20;5.77;;;;;;;1.96;99.72;151869.28;5060452;28;20446;-75
2022/01/29 06:00:53;;;;;;;8.50;6.00;;;;;;;1.96;99.58;151870.53;5071567;28;20554;-76
2022/01/29 06:03:30;;;;;;;8.83;5.90;;;;;;;1.98;99.46;151875.72;5052149;28;20460;-76
2022/01/29 06:06:05;;;;;;;6.23;5.60;;;;;;;2.02;99.81;151885.97;5052837;28;20447;-75
2022/01/29 06:08:41;;;;;;;7.23;6.00;;;;;;;2.01;99.71;151883.44;5082002;28;20439;-75
2022/01/29 06:11:17;;;;;;;9.70;7.10;;;;;;;2.00;100.00;151880.84;5104625;28;20447;-75
2022/01/29 06:13:52;;;;;;;10.23;6.80;;;;;;;1.96;100.00;151870.53;5062225;28;20469;-75
2022/01/29 06:16:29;;;;;;;9.80;6.20;;;;;;;1.98;100.00;151874.41;5069441;28;20453;-75
2022/01/29 06:19:06;;;;;;;9.47;6.60;;;;;;;1.97;100.00;151873.13;5056519;28;20446;-77
2022/01/29 06:21:41;;;;;;;8.80;6.87;;;;;;;1.98;100.00;151875.72;5054265;28;20495;-77
2022/01/29 06:24:17;;;;;;;10.53;7.20;;;;;;;1.95;100.00;151868.00;5106536;28;20443;-74
2022/01/29 06:26:53;;;;;;;9.13;7.50;;;;;;;1.93;100.00;151862.88;5072833;28;20443;-77
2022/01/29 06:29:28;;;;;;;10.57;7.20;;;;;;;1.91;100.00;151857.69;5071246;28;20826;-76
2022/01/29 06:32:05;;;;;;;8.67;7.20;;;;;;;1.91;100.00;151857.69;5106217;28;20441;-76
2022/01/29 06:34:41;;;;;;;11.50;7.00;;;;;;;1.92;100.00;151860.28;5105674;28;20448;-76
2022/01/29 06:37:17;;;;;;;11.03;7.00;;;;;;;1.90;100.00;151855.16;5088632;28;20849;-76
2022/01/29 06:39:53;;;;;;;11.60;8.50;;;;;;;1.91;100.00;151857.69;5045998;28;20447;-76
2022/01/29 06:42:28;;;;;;;9.20;7.87;;;;;;;1.93;100.00;151862.88;5071711;28;20462;-77
2022/01/29 06:45:05;;;;;;;8.60;7.00;;;;;;;1.94;100.00;151865.41;5106100;28;20444;-77
2022/01/29 06:47:41;;;;;;;9.13;7.10;;;;;;;1.92;100.00;151858.97;5105001;28;20456;-76
2022/01/29 06:50:18;;;;;;;11.10;7.20;;;;;;;1.91;100.00;151857.69;5052996;28;20458;-77
2022/01/29 06:52:54;;;;;;;9.63;7.90;;;;;;;1.90;100.00;151855.16;5048928;28;20926;-76
2022/01/29 06:55:29;;;;;;;11.63;8.80;;;;;;;1.89;100.00;151852.56;5098591;28;20452;-76
2022/01/29 06:58:05;;;;;;;12.90;8.10;;;;;;;1.89;100.00;151852.56;5067110;28;20440;-76
2022/01/29 07:00:41;;;;;;;9.90;8.80;;;;;;;1.88;100.00;151848.72;5101511;28;20958;-76
2022/01/29 07:03:17;;;;;;;10.23;8.23;;;;;;;1.88;100.00;151849.97;5102440;28;21004;-76
2022/01/29 07:05:54;;;;;;;10.03;7.83;;;;;;;1.91;100.00;151856.44;5085615;28;20459;-76
2022/01/29 07:08:29;;;;;;;12.87;8.50;;;;;;;1.88;100.00;151849.97;5067063;28;20850;-77
2022/01/29 07:11:05;;;;;;;11.93;8.87;;;;;;;1.90;100.00;151853.84;5053347;28;20783;-77
2022/01/29 07:13:41;;;;;;;12.37;9.23;;;;;;;1.90;100.00;151855.16;5101016;28;20480;-76
2022/01/29 07:16:16;;;;;;;14.63;9.50;;;;;;;1.91;100.00;151857.69;5037636;28;20454;-77
2022/01/29 07:18:52;;;;;;;12.43;8.67;;;;;;;1.91;100.00;151857.69;5102431;28;20457;-77
2022/01/29 07:21:29;;;;;;;10.50;8.23;;;;;;;1.94;100.00;151864.09;5070546;28;20538;-76
2022/01/29 07:24:05;;;;;;;11.70;8.17;;;;;;;1.95;100.00;151868.00;5054918;28;20942;-76
2022/01/29 07:26:41;;;;;;;9.20;7.20;;;;;;;1.97;100.00;151873.13;5069213;28;20990;-76
2022/01/29 07:29:19;;;;;;;10.37;7.03;;;;;;;2.00;100.00;151880.84;5069847;28;20448;-76
2022/01/29 07:31:55;;;;;;;8.60;7.13;;;;;;;1.97;100.00;151873.13;5086650;28;20479;-77
2022/01/29 07:34:31;;;;;;;8.00;6.50;;;;;;;1.98;100.00;151875.72;5072100;28;20434;-77
2022/01/29 07:37:08;;;;;;;8.67;6.47;;;;;;;2.01;100.00;151883.44;5071192;28;20452;-76
2022/01/29 07:39:43;;;;;;;9.70;5.87;;;;;;;1.98;100.00;151875.72;5071650;28;20475;-76
2022/01/29 07:42:19;;;;;;;8.63;6.10;;;;;;;2.04;100.00;151891.09;5070236;28;20525;-77
2022/01/29 07:44:55;;;;;;;8.87;5.60;;;;;;;2.03;100.00;151888.56;5105160;28;20456;-77
2022/01/29 07:47:30;;;;;;;7.33;5.93;;;;;;;2.06;100.00;151896.28;5091767;28;20432;-76
2022/01/29 07:50:07;;;;;;;6.50;5.27;;;;;;;2.06;100.00;151896.28;5100467;28;20458;-77
2022/01/29 07:52:43;;;;;;;6.63;5.50;;;;;;;2.12;100.00;151911.69;5070817;28;20442;-76
2022/01/29 07:55:19;;;;;;;5.90;4.50;;;;;;;2.12;100.00;151911.69;5104296;28;20802;-76
2022/01/29 07:57:54;;;;;;;6.20;4.77;;;;;;;2.14;100.00;151916.84;5070019;28;20446;-85
2022/01/29 08:00:30;;;;;;;5.63;4.97;;;;;;;2.17;100.00;151923.28;5101832;28;20954;-76
2022/01/29 08:03:05;;;;;;;5.00;4.30;;;;;;;2.16;100.00;151921.97;5069786;28;20547;-76
2022/01/29 08:05:41;;;;;;;4.50;3.80;;;;;;;2.18;100.00;151927.13;5088677;28;20946;-76
2022/01/29 08:08:18;;;;;;;5.17;4.20;;;;;;;2.23;100.00;151939.97;5068598;28;22355;-76
2022/01/29 08:10:53;;;;;;;5.20;4.00;;;;;;;2.24;99.64;151942.56;5071298;28;20443;-76
2022/01/29 08:13:29;;;;;;;6.07;4.00;;;;;;;2.24;100.00;151942.56;5103220;28;20458;-76
2022/01/29 08:16:05;;;;;;;7.27;4.00;;;;;;;2.27;100.00;151950.28;5070063;28;20852;-77
2022/01/29 08:18:42;;;;;;;5.10;4.20;;;;;;;2.29;100.00;151955.41;5102029;28;20451;-76
2022/01/29 08:21:17;;;;;;;5.20;3.47;;;;;;;2.33;98.96;151965.66;5072432;28;20996;-76
2022/01/29 08:23:54;;;;;;;5.53;3.80;;;;;;;2.34;99.47;151968.25;5070176;28;20526;-77
2022/01/29 08:26:30;;;;;;;4.90;4.00;;;;;;;2.38;99.16;151978.53;5069691;28;20529;-77
2022/01/29 08:29:05;;;;;;;4.43;3.80;;;;;;;2.41;97.95;151986.25;5070161;28;20434;-76
2022/01/29 08:31:41;;;;;;;3.73;3.40;;;;;;;2.43;97.52;151990.13;5087420;28;20442;-76
2022/01/29 08:34:16;;;;;;;4.63;3.77;;;;;;;2.44;96.95;151993.97;5087022;28;20449;-76
2022/01/29 08:36:52;;;;;;;6.17;4.33;;;;;;;2.51;95.40;152009.41;5068564;28;20443;-77
2022/01/29 08:39:29;;;;;;;4.23;3.83;;;;;;;2.57;96.44;152024.88;5104389;28;20447;-76
2022/01/29 08:42:08;;;;;;;5.53;4.07;;;;;;;2.62;96.02;152037.72;5103014;28;20681;-77
2022/01/29 08:44:44;;;;;;;6.07;4.10;;;;;;;2.70;95.27;152059.56;5102514;28;20802;-76
2022/01/29 08:47:19;;;;;;;4.53;3.60;;;;;;;2.76;93.64;152073.72;5045662;28;20466;-76
2022/01/29 08:49:55;;;;;;;5.97;3.87;;;;;;;2.81;93.59;152087.84;5053841;28;20932;-76
2022/01/29 08:52:31;;;;;;;6.57;3.83;;;;;;;2.90;93.10;152111.03;5102168;28;20523;-77
2022/01/29 08:55:09;;;;;;;5.00;4.03;;;;;;;2.95;92.89;152122.59;5047241;28;20440;-76
2022/01/29 08:57:45;;;;;;;5.80;4.43;;;;;;;3.02;92.64;152141.91;5103606;28;20547;-76
2022/01/29 09:00:21;;;;;;;6.60;4.60;;;;;;;3.01;93.39;152139.34;5056235;28;20454;-77
2022/01/29 09:02:56;;;;;;;5.67;4.73;;;;;;;3.10;90.90;152161.19;5068275;28;20471;-77
2022/01/29 09:05:32;;;;;;;5.30;3.90;;;;;;;3.15;91.03;152172.81;5053866;28;20447;-77
2022/01/29 09:08:08;;;;;;;8.70;5.47;;;;;;;3.21;90.12;152188.22;5103177;28;20461;-76
2022/01/29 09:10:45;;;;;;;5.70;4.47;;;;;;;3.22;90.96;152192.09;5070687;28;20457;-77
2022/01/29 09:13:20;;;;;;;6.33;5.20;;;;;;;3.28;90.13;152207.56;5100982;28;20468;-77
2022/01/29 09:15:57;;;;;;;7.13;4.83;;;;;;;3.39;91.36;152235.81;5103785;28;20439;-77
2022/01/29 09:18:32;;;;;;;6.73;4.80;;;;;;;3.38;89.70;152233.28;5103460;28;20444;-76
2022/01/29 09:21:08;;;;;;;6.57;4.97;;;;;;;3.44;88.97;152248.69;5103190;28;20535;-77
2022/01/29 09:23:43;;;;;;;6.03;5.00;;;;;;;3.52;88.97;152268.03;5071047;28;20571;-76
2022/01/29 09:26:20;;;;;;;5.67;5.07;;;;;;;3.53;90.66;152271.88;5072711;28;20440;-77
2022/01/29 09:28:56;;;;;;;6.63;5.07;;;;;;;3.53;88.95;152270.59;5091080;28;20452;-77
2022/01/29 09:31:31;;;;;;;5.50;4.37;;;;;;;3.56;89.84;152279.63;5104574;28;20459;-76
2022/01/29 09:34:07;;;;;;;7.80;5.53;;;;;;;3.60;89.42;152289.88;5107048;28;20536;-77
2022/01/29 09:36:43;;;;;;;7.57;5.10;;;;;;;3.64;87.73;152300.22;5053784;28;20442;-77
2022/01/29 09:39:25;;;;;;;10.43;5.83;;;;;;;3.69;88.50;152311.78;5038932;28;20448;-76
2022/01/29 09:42:02;;;;;;;7.10;5.10;;;;;;;3.68;88.25;152309.19;5070743;28;20848;-77
2022/01/29 09:44:38;;;;;;;10.53;6.17;;;;;;;3.75;89.98;152327.25;5106239;28;20491;-76
2022/01/29 09:47:15;;;;;;;12.60;5.87;;;;;;;3.87;89.31;152356.81;5105591;28;20441;-77
2022/01/29 09:49:52;;;;;;;6.20;4.60;;;;;;;3.88;89.32;152359.44;5065653;28;20506;-77
2022/01/29 09:52:28;;;;;;;6.80;5.40;;;;;;;3.96;89.20;152381.31;5100227;28;21111;-76
2022/01/29 09:55:04;;;;;;;6.93;5.20;;;;;;;4.05;89.31;152403.22;5072564;28;20767;-76
2022/01/29 09:57:41;;;;;;;5.60;4.73;;;;;;;4.08;88.79;152412.22;5070249;28;21157;-76
2022/01/29 10:00:18;;;;;;;6.00;4.70;;;;;;;4.12;88.59;152422.53;5088512;28;20940;-76
2022/01/29 10:03:15;;;;;;;6.40;5.03;;;;;;;4.12;88.50;152421.25;5102524;28;20464;-76
2022/01/29 10:05:52;;;;;;;6.07;5.03;;;;;;;4.23;90.90;152449.59;5096376;28;20505;-77
2022/01/29 10:08:28;;;;;;;9.23;6.50;;;;;;;4.32;88.85;152472.75;5079467;28;20450;-76
2022/01/29 10:11:04;;;;;;;9.63;4.80;;;;;;;4.49;87.93;152516.56;5090412;28;20837;-76
2022/01/29 10:13:41;;;;;;;5.40;4.40;;;;;;;4.54;88.87;152529.44;5071936;28;20460;-76
2022/01/29 10:16:19;;;;;;;7.60;5.50;;;;;;;4.51;87.92;152521.69;5100547;28;20789;-76
2022/01/29 10:19:03;;;;;;;5.63;4.77;;;;;;;4.49;88.44;152515.25;5069902;28;20433;-76
2022/01/29 10:21:41;;;;;;;6.17;5.13;;;;;;;4.51;89.02;152521.69;5054903;28;20444;-76
2022/01/29 10:24:18;;;;;;;5.53;4.40;;;;;;;4.48;89.59;152513.97;5052516;28;20505;-76
2022/01/29 10:26:54;;;;;;;5.27;4.30;;;;;;;4.56;90.05;152534.59;5054565;28;20453;-76
2022/01/29 10:29:33;;;;;;;6.23;4.40;;;;;;;4.82;91.24;152601.56;5069683;28;20445;-76
2022/01/29 10:32:09;;;;;;;4.60;3.73;;;;;;;4.92;89.88;152627.34;5069769;28;20463;-76
2022/01/29 10:34:54;;;;;;;5.40;4.63;;;;;;;5.12;88.31;152676.31;5069010;28;20485;-76
2022/01/29 10:37:29;;;;;;;5.77;4.20;;;;;;;5.23;89.27;152704.69;5069176;28;20531;-76
2022/01/29 10:40:22;;;;;;;5.57;4.37;;;;;;;5.31;89.14;152725.31;5071863;28;20445;-76
2022/01/29 10:42:58;;;;;;;4.97;4.17;;;;;;;5.33;88.97;152730.47;5068558;28;20438;-76
2022/01/29 10:45:36;;;;;;;6.30;4.40;;;;;;;5.38;88.14;152744.66;5067904;28;20458;-76
2022/01/29 10:48:11;;;;;;;7.70;4.60;;;;;;;5.38;91.12;152744.66;5098312;28;20477;-76
2022/01/29 10:51:10;;;;;;;4.70;4.03;;;;;;;5.43;89.86;152757.53;5067008;28;20449;-76
2022/01/29 10:53:45;;;;;;;4.60;3.93;;;;;;;5.46;89.73;152764.00;5053560;28;20508;-76
2022/01/29 10:56:21;;;;;;;5.57;3.70;;;;;;;5.50;88.98;152774.31;5055547;28;20903;-77
2022/01/29 10:58:57;;;;;;;4.60;3.87;;;;;;;5.57;88.83;152792.38;5070276;28;20449;-77
2022/01/29 11:01:34;;;;;;;4.63;3.10;;;;;;;5.65;88.64;152811.69;5069140;28;20473;-77
2022/01/29 11:04:09;;;;;;;5.37;4.40;;;;;;;5.64;88.56;152810.41;5070271;28;20866;-77
2022/01/29 11:06:47;;;;;;;5.83;3.87;;;;;;;5.66;90.87;152814.28;5071180;28;20441;-76
2022/01/29 11:09:23;;;;;;;5.00;3.80;;;;;;;5.66;90.00;152815.59;5054650;28;20450;-76
2022/01/29 11:12:02;;;;;;;4.97;3.53;;;;;;;5.66;90.15;152815.59;5088987;28;20456;-76
2022/01/29 11:14:38;;;;;;;5.07;3.57;;;;;;;5.73;91.17;152833.63;5079555;28;20916;-76
2022/01/29 11:17:16;;;;;;;3.43;3.13;;;;;;;5.80;90.63;152850.44;5052677;28;20545;-77
2022/01/29 11:19:51;;;;;;;4.10;2.70;;;;;;;5.89;91.95;152874.97;5100614;28;20458;-77
2022/01/29 11:22:29;;;;;;;5.13;2.47;;;;;;;5.95;91.46;152890.44;5071678;28;20434;-77
2022/01/29 11:25:07;;;;;;;3.80;2.60;;;;;;;6.03;90.51;152911.09;5070836;28;20833;-77
2022/01/29 11:27:42;;;;;;;4.10;2.33;;;;;;;6.01;91.71;152905.88;5070212;28;20438;-77
2022/01/29 11:30:18;;;;;;;4.20;3.30;;;;;;;6.07;90.54;152920.09;5054166;28;20462;-77
2022/01/29 11:32:56;;;;;;;3.03;2.53;;;;;;;6.17;90.59;152944.63;5096083;28;20780;-77
2022/01/29 11:35:32;;;;;;;3.17;2.50;;;;;;;6.11;92.12;152930.44;5104843;28;20485;-77
2022/01/29 11:38:10;;;;;;;2.97;2.00;;;;;;;6.06;91.14;152918.78;5103346;28;20556;-77
2022/01/29 11:40:57;;;;;;;3.07;1.90;;;;;;;6.05;92.10;152916.25;5050764;28;20470;-77
2022/01/29 11:43:34;;;;;;;2.50;1.43;;;;;;;6.08;90.31;152922.69;5092653;28;20980;-77
2022/01/29 11:46:30;;;;;;;3.00;2.30;;;;;;;6.07;91.51;152921.38;5066972;28;20446;-77
2022/01/29 11:49:19;;;;;;;3.53;2.30;;;;;;;6.11;90.31;152931.72;5094792;28;20857;-77
2022/01/29 11:51:54;;;;;;;3.80;2.93;;;;;;;6.08;90.62;152923.97;5104915;28;20450;-76
2022/01/29 11:54:59;;;;;;;3.43;2.77;;;;;;;6.09;90.47;152926.53;5069893;28;20438;-77
2022/01/29 11:57:34;;;;;;;2.77;2.10;;;;;;;6.01;90.03;152905.88;5097357;28;20454;-77
2022/01/29 12:00:34;;;;;;;2.90;2.60;;;;;;;5.92;94.21;152881.41;5104604;28;20456;-77
2022/01/29 12:03:48;;;;;;;3.97;3.17;;;;;;;5.95;91.41;152890.44;5087892;28;20465;-77
2022/01/29 12:06:29;;;;;;;4.10;2.23;;;;;;;5.99;91.49;152899.44;5078974;28;21033;-77
2022/01/29 12:09:27;;;;;;;3.80;2.37;;;;;;;6.01;91.00;152905.88;5054976;28;20446;-77
2022/01/29 12:12:24;;;;;;;3.97;2.63;;;;;;;5.96;91.39;152893.00;5050674;28;20773;-77
2022/01/29 12:15:36;;;;;;;5.27;3.47;;;;;;;5.93;92.24;152884.00;5090758;28;20458;-77
2022/01/29 12:18:26;;;;;;;2.83;2.23;;;;;;;5.96;91.85;152893.00;5083213;28;20434;-76
2022/01/29 12:21:03;;;;;;;2.80;2.50;;;;;;;6.04;92.67;152912.34;5057091;28;20454;-77
2022/01/29 12:23:49;;;;;;;3.97;2.60;;;;;;;6.06;93.51;152918.78;5098116;28;20462;-77
2022/01/29 12:26:24;;;;;;;3.20;2.57;;;;;;;6.10;92.35;152929.13;5068489;28;20453;-77
2022/01/29 12:29:01;;;;;;;4.23;2.23;;;;;;;6.05;93.21;152916.25;5104611;28;20437;-76